Time;durP1;ratioP1;P1;durP2;ratioP2;P2;SDS_P1;SDS_P2;PMS_P1;PMS_P2;Temp;Humidity;BMP_temperature;BMP_pressure;BME280_temperature;BME280_humidity;BME280_pressure;Samples;Min_cycle;Max_cycle;Signal;HPM_P1;HPM_P2
2022/12/05 00:00:29;;;;;;;6.60;4.13;;;;;;;;;;6179978;23;20691;-60
2022/12/05 00:03:05;;;;;;;7.55;4.45;;;;;;;;;;6180270;23;20470;-60
2022/12/05 00:05:32;;;;;;;6.53;4.15;;;;;;;;;;6180310;23;20096;-61
2022/12/05 00:08:06;;;;;;;7.20;4.22;;;;;;;;;;6179365;23;20410;-60
2022/12/05 00:10:37;;;;;;;7.68;4.38;;;;;;;;;;6180684;23;20021;-61
2022/12/05 00:13:11;;;;;;;6.57;4.22;;;;;;;;;;6181418;23;20021;-61
2022/12/05 00:15:39;;;;;;;5.32;3.55;;;;;;;;;;6179365;23;20021;-55
2022/12/05 00:18:07;;;;;;;8.48;4.57;;;;;;;;;;6177130;23;20043;-63
2022/12/05 00:20:44;;;;;;;6.78;4.28;;;;;;;;;;6179803;23;20021;-57
2022/12/05 00:23:11;;;;;;;9.15;4.60;;;;;;;;;;6175974;23;20475;-57
2022/12/05 00:25:39;;;;;;;6.95;4.18;;;;;;;;;;6180072;23;20017;-55
2022/12/05 00:28:27;;;;;;;6.72;4.53;;;;;;;;;;6177960;23;20028;-56
2022/12/05 00:31:05;;;;;;;5.93;3.88;;;;;;;;;;6178755;23;20515;-55
2022/12/05 00:33:38;;;;;;;7.43;4.30;;;;;;;;;;6176869;23;20017;-57
2022/12/05 00:36:10;;;;;;;9.25;4.80;;;;;;;;;;6181039;23;20096;-54
2022/12/05 00:38:38;;;;;;;6.13;4.03;;;;;;;;;;6178892;23;20525;-53
2022/12/05 00:41:14;;;;;;;6.95;4.07;;;;;;;;;;6180649;23;20107;-54
2022/12/05 00:43:42;;;;;;;7.50;4.50;;;;;;;;;;6180091;23;20024;-53
2022/12/05 00:46:17;;;;;;;7.18;4.50;;;;;;;;;;6179251;23;20035;-53
2022/12/05 00:48:44;;;;;;;8.95;4.00;;;;;;;;;;6179521;23;20791;-54
2022/12/05 00:51:32;;;;;;;7.38;4.60;;;;;;;;;;6179387;23;20750;-50
2022/12/05 00:54:01;;;;;;;6.10;3.92;;;;;;;;;;6180941;23;20025;-59
2022/12/05 00:56:34;;;;;;;7.05;4.03;;;;;;;;;;6179893;23;20017;-49
2022/12/05 00:59:02;;;;;;;9.07;4.70;;;;;;;;;;6180009;23;20437;-53
2022/12/05 01:01:40;;;;;;;7.75;4.53;;;;;;;;;;6180801;23;20025;-51
2022/12/05 01:04:10;;;;;;;8.25;4.95;;;;;;;;;;6180088;23;20076;-53
2022/12/05 01:06:43;;;;;;;6.70;4.22;;;;;;;;;;6178459;23;20540;-51
2022/12/05 01:09:12;;;;;;;6.38;4.35;;;;;;;;;;6179890;23;20108;-51
2022/12/05 01:11:46;;;;;;;6.45;3.88;;;;;;;;;;6178652;23;20107;-49
2022/12/05 01:14:13;;;;;;;;;;;;;;;;;;6179586;23;20017;-60
2022/12/05 01:16:43;;;;;;;5.80;3.97;;;;;;;;;;6179558;23;19955;-56
2022/12/05 01:19:18;;;;;;;7.32;4.30;;;;;;;;;;6178118;23;20104;-56
2022/12/05 01:21:46;;;;;;;6.97;4.68;;;;;;;;;;6178349;23;20029;-57
2022/12/05 01:24:22;;;;;;;6.90;4.40;;;;;;;;;;6177422;23;20046;-57
2022/12/05 01:26:49;;;;;;;7.45;4.30;;;;;;;;;;6180125;23;20025;-56
2022/12/05 01:29:19;;;;;;;6.07;3.85;;;;;;;;;;6177928;23;20309;-55
2022/12/05 01:31:53;;;;;;;7.38;4.80;;;;;;;;;;6178778;23;20025;-57
2022/12/05 01:34:21;;;;;;;6.50;4.28;;;;;;;;;;6178155;23;20534;-62
2022/12/05 01:36:54;;;;;;;7.07;4.07;;;;;;;;;;6178981;23;20181;-52
2022/12/05 01:39:22;;;;;;;7.35;4.78;;;;;;;;;;6179257;23;20021;-53
2022/12/05 01:41:49;;;;;;;7.03;4.80;;;;;;;;;;6178725;23;20387;-53
2022/12/05 01:44:23;;;;;;;6.63;4.57;;;;;;;;;;6177555;23;20104;-53
2022/12/05 01:46:51;;;;;;;8.20;4.40;;;;;;;;;;6179871;23;20025;-50
2022/12/05 01:49:27;;;;;;;7.22;4.28;;;;;;;;;;6177906;23;20021;-52
2022/12/05 01:51:55;;;;;;;6.15;4.32;;;;;;;;;;6178547;23;20021;-56
2022/12/05 01:54:30;;;;;;;6.32;4.30;;;;;;;;;;6179942;23;20025;-59
2022/12/05 01:57:02;;;;;;;7.35;4.50;;;;;;;;;;6178263;23;20028;-59
2022/12/05 01:59:38;;;;;;;7.78;4.32;;;;;;;;;;6178066;23;20219;-60
2022/12/05 02:02:06;;;;;;;7.68;4.28;;;;;;;;;;6177247;23;20029;-59
2022/12/05 02:04:37;;;;;;;8.80;4.55;;;;;;;;;;6177735;23;20028;-59
2022/12/05 02:07:10;;;;;;;6.75;4.30;;;;;;;;;;6178288;23;20043;-59
2022/12/05 02:09:37;;;;;;;6.13;4.20;;;;;;;;;;6178557;23;20027;-49
2022/12/05 02:12:05;;;;;;;9.20;5.00;;;;;;;;;;6178970;23;20027;-63
2022/12/05 02:14:41;;;;;;;5.50;3.97;;;;;;;;;;6178275;23;20096;-45
2022/12/05 02:17:54;;;;;;;11.90;4.93;;;;;;;;;;6179870;23;20027;-45
2022/12/05 02:20:35;;;;;;;6.32;4.18;;;;;;;;;;6056345;23;20120;-45
2022/12/05 02:23:35;;;;;;;8.82;4.57;;;;;;;;;;6056681;23;20913;-45
2022/12/05 02:26:08;;;;;;;6.20;4.15;;;;;;;;;;6156017;23;20021;-44
2022/12/05 02:29:01;;;;;;;6.53;4.40;;;;;;;;;;6177123;23;20486;-52
2022/12/05 02:31:47;;;;;;;7.70;4.50;;;;;;;;;;6178147;23;20116;-53
2022/12/05 02:34:43;;;;;;;7.30;4.68;;;;;;;;;;6176901;23;20052;-63
2022/12/05 02:37:21;;;;;;;6.78;4.60;;;;;;;;;;6164021;23;20067;-63
2022/12/05 02:40:14;;;;;;;6.80;4.25;;;;;;;;;;6178960;23;20051;-63
2022/12/05 02:43:05;;;;;;;7.13;4.68;;;;;;;;;;6152287;23;20020;-63
2022/12/05 02:45:39;;;;;;;8.52;5.28;;;;;;;;;;6168990;23;20052;-63
2022/12/05 02:48:07;;;;;;;8.43;4.50;;;;;;;;;;6178736;23;20029;-52
2022/12/05 02:50:37;;;;;;;7.68;4.03;;;;;;;;;;6179118;23;20021;-58
2022/12/05 02:53:13;;;;;;;7.38;5.00;;;;;;;;;;6179263;23;20016;-59
2022/12/05 02:55:41;;;;;;;6.32;4.60;;;;;;;;;;6179336;23;20104;-59
2022/12/05 02:58:16;;;;;;;8.63;5.38;;;;;;;;;;6178556;23;20032;-59
2022/12/05 03:00:45;;;;;;;8.27;4.80;;;;;;;;;;6179487;23;20021;-61
2022/12/05 03:03:14;;;;;;;8.80;5.07;;;;;;;;;;6179293;23;20485;-59
2022/12/05 03:06:07;;;;;;;9.55;4.30;;;;;;;;;;6176236;23;20492;-59
2022/12/05 03:08:46;;;;;;;8.43;4.40;;;;;;;;;;6177885;23;20023;-59
2022/12/05 03:11:14;;;;;;;9.90;5.30;;;;;;;;;;6180482;23;20060;-55
2022/12/05 03:13:50;;;;;;;7.15;4.60;;;;;;;;;;6179174;23;20025;-53
2022/12/05 03:16:23;;;;;;;8.57;4.95;;;;;;;;;;6181053;23;20027;-48
2022/12/05 03:19:09;;;;;;;7.63;4.70;;;;;;;;;;6174863;23;20060;-49
2022/12/05 03:21:38;;;;;;;8.35;5.28;;;;;;;;;;6181401;23;20031;-51
2022/12/05 03:24:14;;;;;;;8.48;4.93;;;;;;;;;;6180845;23;20028;-49
2022/12/05 03:27:00;;;;;;;7.68;4.97;;;;;;;;;;6179174;23;20032;-55
2022/12/05 03:29:52;;;;;;;7.38;4.82;;;;;;;;;;6179530;23;20124;-59
2022/12/05 03:32:23;;;;;;;9.00;4.88;;;;;;;;;;6180420;23;20031;-60
2022/12/05 03:35:15;;;;;;;9.97;5.53;;;;;;;;;;6178503;23;20485;-59
2022/12/05 03:38:01;;;;;;;9.48;4.97;;;;;;;;;;6179450;23;20031;-62
2022/12/05 03:40:43;;;;;;;10.05;5.50;;;;;;;;;;6179604;23;20550;-60
2022/12/05 03:43:24;;;;;;;7.82;5.03;;;;;;;;;;6179740;23;20035;-60
2022/12/05 03:46:02;;;;;;;10.80;5.25;;;;;;;;;;6179471;23;20020;-60
2022/12/05 03:48:30;;;;;;;9.90;5.53;;;;;;;;;;6180882;23;20140;-55
2022/12/05 03:50:58;;;;;;;9.77;5.30;;;;;;;;;;6178890;23;20028;-55
2022/12/05 03:53:36;;;;;;;10.48;5.75;;;;;;;;;;6180243;23;20028;-53
2022/12/05 03:56:09;;;;;;;8.52;4.93;;;;;;;;;;6180297;23;20048;-51
2022/12/05 03:58:46;;;;;;;9.50;5.65;;;;;;;;;;6178761;23;20231;-54
2022/12/05 04:01:13;;;;;;;9.73;5.65;;;;;;;;;;6178495;23;20031;-52
2022/12/05 04:03:55;;;;;;;9.00;5.68;;;;;;;;;;6180207;23;20017;-63
2022/12/05 04:06:22;;;;;;;8.10;5.45;;;;;;;;;;6180406;23;20963;-60
2022/12/05 04:08:59;;;;;;;8.40;5.07;;;;;;;;;;6179814;23;20355;-63
2022/12/05 04:11:27;;;;;;;8.75;5.78;;;;;;;;;;6180498;23;20021;-63
2022/12/05 04:14:13;;;;;;;6.95;5.25;;;;;;;;;;6178881;23;20024;-63
2022/12/05 04:17:04;;;;;;;10.25;5.57;;;;;;;;;;6178914;23;20021;-62
2022/12/05 04:22:37;;;;;;;10.70;6.32;;;;;;;;;;6178240;23;20268;-64
2022/12/05 04:27:58;;;;;;;9.75;5.78;;;;;;;;;;6177764;23;20025;-45
2022/12/05 04:30:45;;;;;;;10.35;6.20;;;;;;;;;;6179964;23;20029;-46
2022/12/05 04:33:21;;;;;;;9.80;5.70;;;;;;;;;;6178719;23;20084;-46
2022/12/05 04:36:01;;;;;;;9.73;5.68;;;;;;;;;;6180220;23;20490;-45
2022/12/05 04:38:33;;;;;;;10.25;6.25;;;;;;;;;;6180669;23;20474;-47
2022/12/05 04:41:08;;;;;;;9.07;5.57;;;;;;;;;;6180018;23;20023;-48
2022/12/05 04:43:39;;;;;;;12.57;6.00;;;;;;;;;;6179527;23;20351;-60
2022/12/05 04:46:07;;;;;;;9.38;5.78;;;;;;;;;;6181001;23;20096;-51
2022/12/05 04:48:44;;;;;;;11.43;5.45;;;;;;;;;;6179403;23;20056;-56
2022/12/05 04:51:14;;;;;;;9.02;5.85;;;;;;;;;;6179547;23;20021;-50
2022/12/05 04:53:51;;;;;;;10.25;5.65;;;;;;;;;;6179693;23;20103;-51
2022/12/05 04:56:27;;;;;;;8.75;5.43;;;;;;;;;;6178132;23;20025;-51
2022/12/05 04:58:55;;;;;;;8.63;5.78;;;;;;;;;;6179425;23;20024;-53
2022/12/05 05:01:35;;;;;;;7.40;4.57;;;;;;;;;;6180302;23;20131;-54
2022/12/05 05:04:07;;;;;;;8.38;5.28;;;;;;;;;;6177976;23;20021;-63
2022/12/05 05:06:41;;;;;;;8.23;5.10;;;;;;;;;;6180540;23;20056;-63
2022/12/05 05:09:15;;;;;;;7.65;5.10;;;;;;;;;;6179593;23;20506;-63
2022/12/05 05:11:42;;;;;;;8.15;5.30;;;;;;;;;;6179167;23;20483;-63
2022/12/05 05:14:10;;;;;;;8.40;5.18;;;;;;;;;;6176651;23;20027;-62
2022/12/05 05:16:44;;;;;;;8.02;4.65;;;;;;;;;;6176131;23;20489;-63
2022/12/05 05:19:11;;;;;;;6.80;4.20;;;;;;;;;;6179296;23;20021;-63
2022/12/05 05:21:47;;;;;;;7.90;4.82;;;;;;;;;;6177186;23;20017;-63
2022/12/05 05:24:14;;;;;;;8.10;4.93;;;;;;;;;;6179236;23;20045;-53
2022/12/05 05:26:49;;;;;;;7.55;4.55;;;;;;;;;;6177252;23;20036;-53
2022/12/05 05:29:30;;;;;;;7.70;4.57;;;;;;;;;;6176826;23;20083;-51
2022/12/05 05:32:10;;;;;;;7.97;5.05;;;;;;;;;;6177998;23;20055;-53
2022/12/05 05:34:37;;;;;;;6.68;4.10;;;;;;;;;;6176006;23;20104;-50
2022/12/05 05:37:11;;;;;;;9.23;4.88;;;;;;;;;;6178812;23;20025;-53
2022/12/05 05:39:39;;;;;;;6.05;4.03;;;;;;;;;;6179383;23;20116;-60
2022/12/05 05:42:06;;;;;;;7.60;4.68;;;;;;;;;;6179342;23;20021;-63
2022/12/05 05:44:39;;;;;;;5.85;4.20;;;;;;;;;;6175781;23;20565;-64
2022/12/05 05:47:06;;;;;;;8.30;4.15;;;;;;;;;;6175432;23;20418;-63
2022/12/05 05:49:41;;;;;;;7.82;4.90;;;;;;;;;;6177242;23;20043;-63
2022/12/05 05:52:08;;;;;;;9.15;4.70;;;;;;;;;;6174745;23;20063;-63
2022/12/05 05:54:35;;;;;;;8.20;4.40;;;;;;;;;;6176622;23;20476;-63
2022/12/05 05:57:08;;;;;;;9.02;4.40;;;;;;;;;;6175588;23;20036;-63
2022/12/05 05:59:36;;;;;;;7.45;4.45;;;;;;;;;;6175318;23;20104;-60
2022/12/05 06:02:09;;;;;;;7.60;4.43;;;;;;;;;;6176388;23;20112;-63
2022/12/05 06:04:37;;;;;;;7.55;4.32;;;;;;;;;;6175474;23;20100;-63
2022/12/05 06:07:10;;;;;;;6.30;4.15;;;;;;;;;;6179351;23;20023;-63
2022/12/05 06:09:37;;;;;;;6.88;4.28;;;;;;;;;;6177771;23;20028;-63
2022/12/05 06:12:05;;;;;;;7.28;4.82;;;;;;;;;;6178248;23;20354;-63
2022/12/05 06:14:38;;;;;;;6.00;4.13;;;;;;;;;;6178627;23;20095;-64
2022/12/05 06:17:05;;;;;;;8.98;4.13;;;;;;;;;;6176855;23;20505;-56
2022/12/05 06:19:39;;;;;;;6.22;4.10;;;;;;;;;;6177033;23;20017;-54
2022/12/05 06:22:07;;;;;;;5.68;3.95;;;;;;;;;;6178925;23;20017;-44
2022/12/05 06:24:34;;;;;;;7.57;4.65;;;;;;;;;;6177235;23;20519;-47
2022/12/05 06:27:07;;;;;;;5.95;3.88;;;;;;;;;;6177943;23;20506;-49
2022/12/05 06:29:41;;;;;;;8.48;3.75;;;;;;;;;;6178631;23;20021;-45
2022/12/05 06:32:15;;;;;;;7.88;4.65;;;;;;;;;;6178260;23;20366;-44
2022/12/05 06:34:43;;;;;;;6.18;4.13;;;;;;;;;;6179396;23;20023;-48
2022/12/05 06:37:10;;;;;;;6.38;3.67;;;;;;;;;;6179354;23;20474;-62
2022/12/05 06:39:43;;;;;;;5.55;3.65;;;;;;;;;;6178643;23;20017;-63
2022/12/05 06:42:10;;;;;;;7.30;3.90;;;;;;;;;;6178595;23;20021;-59
2022/12/05 06:44:44;;;;;;;6.15;3.63;;;;;;;;;;6176661;23;20060;-59
2022/12/05 06:47:12;;;;;;;4.53;3.30;;;;;;;;;;6179912;23;20039;-60
2022/12/05 06:49:46;;;;;;;5.97;3.63;;;;;;;;;;6178718;23;20542;-59
2022/12/05 06:52:13;;;;;;;4.95;3.42;;;;;;;;;;6179753;23;20025;-59
2022/12/05 06:54:40;;;;;;;4.85;3.10;;;;;;;;;;6177954;23;20100;-59
2022/12/05 06:57:13;;;;;;;6.13;3.85;;;;;;;;;;6180014;23;20025;-60
2022/12/05 06:59:40;;;;;;;5.32;3.78;;;;;;;;;;6176369;23;20025;-52
2022/12/05 07:02:14;;;;;;;6.25;3.88;;;;;;;;;;6178643;23;20032;-52
2022/12/05 07:04:41;;;;;;;7.68;3.75;;;;;;;;;;6176145;23;20485;-51
2022/12/05 07:07:15;;;;;;;7.13;4.05;;;;;;;;;;6179914;23;20056;-54
2022/12/05 07:09:47;;;;;;;6.00;3.25;;;;;;;;;;6177561;23;20024;-52
2022/12/05 07:12:20;;;;;;;5.75;3.70;;;;;;;;;;6178907;23;20036;-52
2022/12/05 07:14:48;;;;;;;6.18;3.90;;;;;;;;;;6178247;23;20024;-46
2022/12/05 07:17:28;;;;;;;5.45;3.70;;;;;;;;;;6179647;23;20021;-51
2022/12/05 07:19:55;;;;;;;6.85;3.85;;;;;;;;;;6178814;23;20127;-55
2022/12/05 07:22:30;;;;;;;8.32;3.90;;;;;;;;;;6179709;23;20049;-52
2022/12/05 07:24:57;;;;;;;6.13;3.50;;;;;;;;;;6177039;23;20542;-51
2022/12/05 07:27:24;;;;;;;5.60;3.90;;;;;;;;;;6178988;23;20017;-50
2022/12/05 07:30:05;;;;;;;6.30;3.85;;;;;;;;;;6176285;23;20047;-52
2022/12/05 07:32:39;;;;;;;4.50;3.25;;;;;;;;;;6177179;23;20550;-52
2022/12/05 07:35:13;;;;;;;7.70;3.83;;;;;;;;;;6178326;23;20107;-63
2022/12/05 07:37:40;;;;;;;7.70;3.58;;;;;;;;;;6178048;23;20056;-46
2022/12/05 07:40:07;;;;;;;7.70;4.00;;;;;;;;;;6177656;23;20021;-49
2022/12/05 07:42:41;;;;;;;4.82;3.65;;;;;;;;;;6178865;23;20066;-47
2022/12/05 07:45:09;;;;;;;6.03;3.85;;;;;;;;;;6178740;23;20488;-48
2022/12/05 07:47:42;;;;;;;6.25;4.35;;;;;;;;;;6176536;23;20110;-46
2022/12/05 07:50:16;;;;;;;5.80;3.90;;;;;;;;;;6177301;23;20482;-46
2022/12/05 07:52:51;;;;;;;7.18;4.40;;;;;;;;;;6177552;23;20048;-62
2022/12/05 07:55:24;;;;;;;5.97;3.80;;;;;;;;;;6177115;23;20108;-52
2022/12/05 07:57:59;;;;;;;6.80;4.15;;;;;;;;;;6180452;23;20103;-60
2022/12/05 08:00:32;;;;;;;5.75;3.67;;;;;;;;;;6179842;23;20021;-59
2022/12/05 08:03:01;;;;;;;5.63;3.47;;;;;;;;;;6180226;23;20055;-59
2022/12/05 08:05:29;;;;;;;7.38;4.35;;;;;;;;;;6179636;23;20088;-59
2022/12/05 08:08:02;;;;;;;6.22;4.25;;;;;;;;;;6180552;23;20346;-60
2022/12/05 08:10:30;;;;;;;7.15;4.50;;;;;;;;;;6180515;23;20033;-60
2022/12/05 08:13:03;;;;;;;6.00;4.05;;;;;;;;;;6181090;23;20052;-57
2022/12/05 08:15:33;;;;;;;7.85;4.30;;;;;;;;;;6179669;23;20100;-63
2022/12/05 08:18:07;;;;;;;9.98;4.20;;;;;;;;;;6177867;23;20104;-63
2022/12/05 08:20:34;;;;;;;6.20;3.65;;;;;;;;;;6179594;23;20031;-63
2022/12/05 08:23:08;;;;;;;7.15;4.13;;;;;;;;;;6180077;23;20028;-64
2022/12/05 08:25:35;;;;;;;7.15;3.97;;;;;;;;;;6179690;23;20027;-63
2022/12/05 08:28:10;;;;;;;8.85;4.45;;;;;;;;;;6180343;23;20025;-62
2022/12/05 08:30:50;;;;;;;7.10;4.20;;;;;;;;;;6174709;23;20024;-53
2022/12/05 08:33:25;;;;;;;5.65;3.97;;;;;;;;;;6178129;23;20068;-63
2022/12/05 08:35:52;;;;;;;6.63;3.95;;;;;;;;;;6179685;23;20017;-54
2022/12/05 08:38:19;;;;;;;7.70;3.92;;;;;;;;;;6179251;23;20035;-54
2022/12/05 08:40:53;;;;;;;8.13;4.20;;;;;;;;;;6179141;23;20055;-53
2022/12/05 08:43:20;;;;;;;8.20;4.70;;;;;;;;;;6179935;23;20029;-51
2022/12/05 08:45:53;;;;;;;8.75;4.20;;;;;;;;;;6178821;23;20483;-53
2022/12/05 08:48:21;;;;;;;7.78;4.22;;;;;;;;;;6180443;23;20039;-52
2022/12/05 08:50:55;;;;;;;6.88;4.28;;;;;;;;;;6178965;23;20025;-52
2022/12/05 08:53:23;;;;;;;6.47;4.07;;;;;;;;;;6179841;23;20485;-47
2022/12/05 08:55:59;;;;;;;6.75;4.45;;;;;;;;;;6178297;23;20025;-48
2022/12/05 08:58:27;;;;;;;7.53;4.60;;;;;;;;;;6179681;23;20021;-47
2022/12/05 09:00:54;;;;;;;7.57;4.25;;;;;;;;;;6178463;23;20091;-47
2022/12/05 09:03:27;;;;;;;8.50;4.20;;;;;;;;;;6180633;23;20100;-47
2022/12/05 09:05:54;;;;;;;6.85;4.15;;;;;;;;;;6180166;23;20182;-47
2022/12/05 09:08:28;;;;;;;7.80;4.72;;;;;;;;;;6178267;23;20035;-46
2022/12/05 09:10:55;;;;;;;5.68;3.78;;;;;;;;;;6180238;23;20032;-64
2022/12/05 09:13:29;;;;;;;8.27;4.25;;;;;;;;;;6180357;23;20032;-62
2022/12/05 09:15:57;;;;;;;7.82;4.82;;;;;;;;;;6178558;23;20025;-63
2022/12/05 09:18:31;;;;;;;6.40;3.90;;;;;;;;;;6180110;23;20028;-63
2022/12/05 09:20:58;;;;;;;7.28;4.63;;;;;;;;;;6180506;23;20021;-63
2022/12/05 09:23:25;;;;;;;7.82;4.72;;;;;;;;;;6179779;23;20420;-64
2022/12/05 09:26:01;;;;;;;9.43;3.70;;;;;;;;;;6179510;23;20027;-63
2022/12/05 09:28:29;;;;;;;6.00;3.95;;;;;;;;;;6180448;23;20119;-60
2022/12/05 09:31:11;;;;;;;6.60;4.65;;;;;;;;;;6179462;23;20021;-63
2022/12/05 09:33:39;;;;;;;8.65;3.95;;;;;;;;;;6178323;23;20045;-45
2022/12/05 09:36:15;;;;;;;7.20;4.38;;;;;;;;;;6180491;23;20362;-46
2022/12/05 09:38:42;;;;;;;6.82;4.55;;;;;;;;;;6178103;23;20100;-46
2022/12/05 09:41:12;;;;;;;7.80;4.30;;;;;;;;;;6179835;23;20052;-45
2022/12/05 09:44:13;;;;;;;8.83;4.90;;;;;;;;;;6179194;23;20100;-46
2022/12/05 09:46:53;;;;;;;8.07;4.55;;;;;;;;;;6173150;23;20021;-60
2022/12/05 09:49:27;;;;;;;7.88;4.80;;;;;;;;;;6178525;23;20027;-55
2022/12/05 09:52:01;;;;;;;7.95;4.45;;;;;;;;;;6179387;23;20024;-63
2022/12/05 09:54:28;;;;;;;;;;;;;;;;;;6152533;23;20100;-63
2022/12/05 09:57:03;;;;;;;8.50;4.47;;;;;;;;;;6179916;23;19948;-63
2022/12/05 09:59:30;;;;;;;6.78;3.95;;;;;;;;;;6177788;23;20035;-62
2022/12/05 10:02:23;;;;;;;7.40;4.18;;;;;;;;;;6179649;23;20024;-63
2022/12/05 10:04:56;;;;;;;8.02;4.30;;;;;;;;;;6178653;23;20099;-64
2022/12/05 10:07:31;;;;;;;7.25;4.60;;;;;;;;;;6179048;23;20043;-60
2022/12/05 10:10:17;;;;;;;6.40;4.10;;;;;;;;;;6176557;23;20053;-60
2022/12/05 10:13:00;;;;;;;6.22;4.35;;;;;;;;;;6179227;23;20053;-60
2022/12/05 10:15:47;;;;;;;8.73;4.97;;;;;;;;;;6177690;23;20048;-60
2022/12/05 10:18:33;;;;;;;7.45;4.50;;;;;;;;;;6178086;23;20072;-60
2022/12/05 10:21:09;;;;;;;6.73;4.60;;;;;;;;;;6179141;23;20028;-60
2022/12/05 10:24:02;;;;;;;9.65;4.20;;;;;;;;;;6177832;23;20083;-60
2022/12/05 10:26:39;;;;;;;8.10;4.47;;;;;;;;;;6152333;23;20544;-54
2022/12/05 10:29:35;;;;;;;7.40;4.28;;;;;;;;;;6179076;23;20056;-45
2022/12/05 10:32:15;;;;;;;7.65;4.25;;;;;;;;;;6149939;23;20467;-49
2022/12/05 10:34:50;;;;;;;9.18;4.30;;;;;;;;;;6149018;23;20473;-47
2022/12/05 10:37:18;;;;;;;8.30;4.63;;;;;;;;;;6149023;23;20398;-46
2022/12/05 10:39:54;;;;;;;6.10;4.07;;;;;;;;;;6149171;23;20453;-48
2022/12/05 10:42:24;;;;;;;5.53;4.13;;;;;;;;;;6149223;23;20018;-49
2022/12/05 10:44:56;;;;;;;7.75;4.68;;;;;;;;;;6148626;23;20100;-53
2022/12/05 10:47:30;;;;;;;7.88;4.60;;;;;;;;;;6149475;23;20292;-45
2022/12/05 10:50:06;;;;;;;6.47;4.13;;;;;;;;;;6149677;23;20100;-45
2022/12/05 10:52:35;;;;;;;7.18;4.05;;;;;;;;;;6148580;23;20566;-47
2022/12/05 10:55:03;;;;;;;8.25;4.55;;;;;;;;;;6148895;23;20021;-46
2022/12/05 10:57:36;;;;;;;7.93;4.32;;;;;;;;;;6148523;23;20017;-45
2022/12/05 11:00:12;;;;;;;5.90;4.05;;;;;;;;;;6147219;23;20021;-45
2022/12/05 11:02:41;;;;;;;8.02;4.18;;;;;;;;;;6150066;23;20029;-45
2022/12/05 11:05:14;;;;;;;7.97;4.25;;;;;;;;;;6149876;23;20108;-45
2022/12/05 11:07:42;;;;;;;;;;;;;;;;;;6149541;23;20697;-65
2022/12/05 11:10:24;;;;;;;9.07;4.03;;;;;;;;;;6149355;23;19948;-65
2022/12/05 11:12:55;;;;;;;5.60;3.50;;;;;;;;;;6149202;23;20032;-65
2022/12/05 11:15:29;;;;;;;9.65;4.20;;;;;;;;;;6147551;23;20031;-65
2022/12/05 11:18:00;;;;;;;8.20;4.35;;;;;;;;;;6149211;23;20018;-65
2022/12/05 11:20:35;;;;;;;6.53;4.10;;;;;;;;;;6148320;23;20507;-65
2022/12/05 11:23:16;;;;;;;5.82;3.80;;;;;;;;;;6149207;23;20017;-53
2022/12/05 11:25:49;;;;;;;7.80;4.20;;;;;;;;;;6148225;23;20049;-49
2022/12/05 11:28:17;;;;;;;7.25;4.47;;;;;;;;;;6147609;23;20036;-51
2022/12/05 11:30:56;;;;;;;8.80;4.47;;;;;;;;;;6139474;23;20087;-51
2022/12/05 11:33:31;;;;;;;6.05;3.80;;;;;;;;;;6181167;23;20027;-53
2022/12/05 11:36:02;;;;;;;7.25;4.28;;;;;;;;;;6178540;23;20103;-49
2022/12/05 11:38:36;;;;;;;6.47;3.90;;;;;;;;;;6180113;23;20099;-54
2022/12/05 11:41:03;;;;;;;6.97;4.00;;;;;;;;;;6178693;23;20047;-64
2022/12/05 11:43:49;;;;;;;11.95;4.00;;;;;;;;;;6179551;23;20785;-44
2022/12/05 11:46:19;;;;;;;6.07;4.00;;;;;;;;;;6180662;23;20025;-47
2022/12/05 11:49:12;;;;;;;7.63;3.72;;;;;;;;;;6179587;23;20025;-45
2022/12/05 11:51:42;;;;;;;7.15;3.67;;;;;;;;;;6180173;23;20017;-45
2022/12/05 11:54:39;;;;;;;5.53;3.75;;;;;;;;;;6178090;23;20053;-45
2022/12/05 11:57:26;;;;;;;;;;;;;;;;;;6179962;23;20021;-47
2022/12/05 12:00:07;;;;;;;5.22;3.08;;;;;;;;;;6179777;23;19924;-65
2022/12/05 12:02:43;;;;;;;4.88;3.70;;;;;;;;;;6178970;23;20039;-63
2022/12/05 12:05:30;;;;;;;5.85;3.88;;;;;;;;;;6178740;23;20369;-65
2022/12/05 12:07:57;;;;;;;6.68;3.60;;;;;;;;;;6180251;23;20023;-65
2022/12/05 12:10:43;;;;;;;6.68;3.78;;;;;;;;;;6178880;23;20033;-64
2022/12/05 12:13:19;;;;;;;5.82;3.95;;;;;;;;;;6178812;23;20021;-64
2022/12/05 12:16:11;;;;;;;6.53;4.13;;;;;;;;;;6179357;23;20542;-64
2022/12/05 12:18:51;;;;;;;6.18;3.75;;;;;;;;;;6177358;23;20517;-65
2022/12/05 12:21:44;;;;;;;4.95;3.38;;;;;;;;;;6180680;23;20025;-65
2022/12/05 12:24:14;;;;;;;5.80;3.75;;;;;;;;;;6179479;23;20069;-52
2022/12/05 12:27:01;;;;;;;6.20;4.00;;;;;;;;;;6180909;23;20017;-56
2022/12/05 12:29:46;;;;;;;6.85;4.30;;;;;;;;;;6179966;23;20681;-54
2022/12/05 12:32:20;;;;;;;5.95;3.70;;;;;;;;;;6180780;23;20035;-55
2022/12/05 12:35:17;;;;;;;5.35;3.85;;;;;;;;;;6179876;23;20017;-55
2022/12/05 12:37:53;;;;;;;6.45;4.30;;;;;;;;;;6180524;23;20040;-55
2022/12/05 12:40:32;;;;;;;6.00;3.80;;;;;;;;;;6180238;23;20056;-64
2022/12/05 12:43:19;;;;;;;5.38;3.67;;;;;;;;;;6179575;23;20355;-60
2022/12/05 12:46:10;;;;;;;6.50;4.10;;;;;;;;;;6180196;23;20021;-60
2022/12/05 12:48:53;;;;;;;6.10;3.58;;;;;;;;;;6181190;23;20102;-60
2022/12/05 12:51:20;;;;;;;5.55;3.58;;;;;;;;;;6179300;23;20021;-60
2022/12/05 12:54:27;;;;;;;5.15;3.80;;;;;;;;;;6180799;23;20099;-60
2022/12/05 12:57:21;;;;;;;6.45;3.72;;;;;;;;;;6106808;23;20021;-53
2022/12/05 12:59:58;;;;;;;7.32;4.05;;;;;;;;;;6178646;23;20021;-51
2022/12/05 13:02:46;;;;;;;5.00;3.30;;;;;;;;;;6179938;23;20291;-56
2022/12/05 13:05:27;;;;;;;6.43;3.55;;;;;;;;;;6178475;23;20048;-53
2022/12/05 13:07:57;;;;;;;6.03;3.67;;;;;;;;;;6178642;23;20332;-55
2022/12/05 13:10:34;;;;;;;8.27;3.97;;;;;;;;;;6179118;23;20407;-51
2022/12/05 13:13:02;;;;;;;7.82;3.58;;;;;;;;;;6179509;23;20020;-55
2022/12/05 13:15:59;;;;;;;6.45;4.07;;;;;;;;;;6178228;23;20071;-50
2022/12/05 13:18:34;;;;;;;6.68;3.60;;;;;;;;;;6152881;23;20017;-51
2022/12/05 13:21:05;;;;;;;9.15;4.47;;;;;;;;;;6178510;23;20095;-51
2022/12/05 13:23:47;;;;;;;6.55;3.90;;;;;;;;;;6179279;23;20023;-54
2022/12/05 13:26:14;;;;;;;8.38;4.80;;;;;;;;;;6178268;23;20432;-53
2022/12/05 13:28:54;;;;;;;6.63;3.95;;;;;;;;;;6178263;23;20580;-54
2022/12/05 13:31:44;;;;;;;6.47;3.78;;;;;;;;;;6179047;23;20028;-53
2022/12/05 13:34:38;;;;;;;6.38;4.18;;;;;;;;;;6178957;23;20810;-54
2022/12/05 13:43:08;;;;;;;5.55;3.33;;;;;;;;;;6179518;23;20367;-64
2022/12/05 13:45:52;;;;;;;9.02;3.90;;;;;;;;;;6178963;23;20021;-64
2022/12/05 13:48:21;;;;;;;5.57;4.00;;;;;;;;;;6179575;23;20375;-64
2022/12/05 13:51:05;;;;;;;6.80;3.90;;;;;;;;;;6179718;23;20021;-64
2022/12/05 13:53:43;;;;;;;5.57;3.72;;;;;;;;;;6178657;23;20100;-64
2022/12/05 13:56:19;;;;;;;6.10;4.13;;;;;;;;;;6179051;23;20017;-60
2022/12/05 13:58:50;;;;;;;6.95;3.55;;;;;;;;;;6179229;23;20108;-56
2022/12/05 14:01:26;;;;;;;6.27;3.27;;;;;;;;;;6178690;23;20027;-54
2022/12/05 14:03:55;;;;;;;5.43;3.55;;;;;;;;;;6178300;23;20025;-58
2022/12/05 14:06:37;;;;;;;5.93;3.63;;;;;;;;;;6178671;23;20607;-57
2022/12/05 14:09:11;;;;;;;;;;;;;;;;;;6179473;23;20530;-54
2022/12/05 14:12:04;;;;;;;5.40;3.72;;;;;;;;;;6176520;23;20317;-54
2022/12/05 14:14:51;;;;;;;6.57;3.72;;;;;;;;;;6179216;23;20072;-52
2022/12/05 14:17:26;;;;;;;5.88;3.97;;;;;;;;;;6180909;23;20120;-63
2022/12/05 14:20:05;;;;;;;6.13;3.92;;;;;;;;;;6177767;23;20031;-64
2022/12/05 14:22:53;;;;;;;5.47;3.58;;;;;;;;;;6178631;23;20067;-63
2022/12/05 14:25:32;;;;;;;7.82;3.75;;;;;;;;;;6179654;23;20035;-63
2022/12/05 14:28:37;;;;;;;6.20;3.63;;;;;;;;;;6179936;23;20025;-64
2022/12/05 14:31:11;;;;;;;5.68;3.65;;;;;;;;;;6177688;23;20021;-64
2022/12/05 14:33:44;;;;;;;5.75;3.50;;;;;;;;;;6179102;23;20044;-61
2022/12/05 14:36:15;;;;;;;5.90;3.42;;;;;;;;;;6177731;23;20027;-46
2022/12/05 14:38:43;;;;;;;6.22;3.63;;;;;;;;;;6178955;23;20100;-46
2022/12/05 14:41:31;;;;;;;5.10;3.33;;;;;;;;;;6178483;23;20023;-45
2022/12/05 14:43:58;;;;;;;7.05;3.65;;;;;;;;;;6178462;23;20017;-50
2022/12/05 14:46:35;;;;;;;5.82;3.80;;;;;;;;;;6177745;23;20025;-46
2022/12/05 14:49:20;;;;;;;5.40;3.67;;;;;;;;;;6179254;23;20072;-47
2022/12/05 14:51:57;;;;;;;10.70;3.97;;;;;;;;;;6177576;23;20473;-63
2022/12/05 14:54:26;;;;;;;5.80;3.80;;;;;;;;;;6179331;23;20099;-45
2022/12/05 14:57:03;;;;;;;5.07;3.30;;;;;;;;;;6178062;23;20108;-60
2022/12/05 14:59:38;;;;;;;4.88;3.45;;;;;;;;;;6178468;23;20112;-60
2022/12/05 15:02:18;;;;;;;6.07;3.78;;;;;;;;;;6177870;23;20021;-61
2022/12/05 15:04:52;;;;;;;7.22;3.80;;;;;;;;;;6177940;23;20125;-60
2022/12/05 15:07:31;;;;;;;6.03;3.78;;;;;;;;;;6178087;23;20025;-60
2022/12/05 15:10:02;;;;;;;5.13;3.58;;;;;;;;;;6177137;23;20024;-60
2022/12/05 15:12:46;;;;;;;4.10;2.90;;;;;;;;;;6176813;23;20027;-54
2022/12/05 15:15:25;;;;;;;5.53;3.30;;;;;;;;;;6176899;23;20023;-51
2022/12/05 15:18:08;;;;;;;6.40;3.72;;;;;;;;;;6176764;23;20398;-51
2022/12/05 15:20:39;;;;;;;5.45;3.75;;;;;;;;;;6176793;23;20104;-51
2022/12/05 15:23:31;;;;;;;5.95;3.60;;;;;;;;;;6177169;23;20021;-49
2022/12/05 15:25:59;;;;;;;6.72;3.75;;;;;;;;;;6175181;23;20029;-50
2022/12/05 15:29:12;;;;;;;7.15;4.10;;;;;;;;;;6178452;23;20021;-53
2022/12/05 15:31:54;;;;;;;5.80;3.72;;;;;;;;;;6175958;23;20083;-59
2022/12/05 15:34:35;;;;;;;7.18;4.10;;;;;;;;;;6177875;23;20029;-64
2022/12/05 15:37:04;;;;;;;6.70;4.22;;;;;;;;;;6177483;23;20044;-63
2022/12/05 15:39:57;;;;;;;6.38;3.83;;;;;;;;;;6179089;23;20021;-64
2022/12/05 15:42:29;;;;;;;5.35;3.72;;;;;;;;;;6178842;23;20113;-63